ADDS METAR Data INFO
IDs: Format: Raw Decoded Include TAF

Data at: 2049 UTC 24 Jun 2018

PAFS 242001Z AUTO 06004KT 10SM OVC060 15/08 A2997 RMK AO2 SLP166 T01500083
PAFS 241901Z AUTO 02004KT 10SM OVC060 14/08 A2998 RMK AO2 SLP169 T01440083
PAFS 241801Z AUTO 06004KT 10SM OVC070 13/10 A2998 RMK AO2 SLP171 60001 T01330100 10133 20094 55001
PAFS 241701Z AUTO 00000KT 10SM OVC085 13/11 A2998 RMK AO2 SLP172 T01280106
PAFS 241601Z AUTO 00000KT 10SM OVC070 11/10 A2998 RMK AO2 RAE1505 SLP172 P0000 T01060100
PAFS 241501Z AUTO 00000KT 10SM -RA OVC070 09/09 A2998 RMK AO2 RAB1442 SLP173 P0001 60001 T00940094 58002
PAFS 241401Z AUTO 00000KT 10SM OVC075 09/09 A2998 RMK AO2 SLP173 T00940089
PAFS 241301Z AUTO 00000KT 10SM OVC065 10/09 A2999 RMK AO2 SLP174 T01000094
PAFS 241201Z AUTO 00000KT 10SM BKN070 OVC085 11/10 A2999 RMK AO2 SLP174 60000 70004 T01060100 10144 20106 58005
PAFS 241101Z AUTO 30003KT 10SM OVC090 12/11 A2999 RMK AO2 SLP175 T01170106
PAFS 241001Z AUTO 30003KT 10SM BKN070 OVC090 12/11 A3000 RMK AO2 SLP177 T01170106
PAFS 240901Z AUTO 00000KT 10SM SCT060 OVC070 12/11 A3000 RMK AO2 SLP179 60002 T01220111 53001
PAFS 240801Z AUTO 32003KT 10SM FEW045 BKN055 OVC065 13/11 A3001 RMK AO2 RAB0739E0756 SLP180 P0000 T01330106 401330133
PAFS 240701Z AUTO 00000KT 10SM BKN070 OVC085 14/11 A3000 RMK AO2 SLP178 T01390106
PAFS 240601Z AUTO 34003KT 10SM BKN095 BKN110 14/10 A3000 RMK AO2 SLP178 60002 T01390100 10189 20139 56003
PAFS 240501Z AUTO 35004KT 10SM BKN090 14/09 A3000 RMK AO2 RAE0411 SLP179 P0000 T01440094
PAFS 240401Z AUTO 35007KT 10SM -RA BKN070 OVC080 14/11 A3001 RMK AO2 SLP182 P0002 T01390106
PAFS 240301Z AUTO 07009KT 10SM -RA BKN075 OVC095 17/09 A3000 RMK AO2 RAB0259 SLP179 P0000 60000 T01720089 55008
PAFS 240201Z AUTO 09009G15KT 10SM BKN050 BKN060 17/09 A3001 RMK AO2 RAB0133E0143 SLP182 P0000 T01670089
PAFS 240101Z AUTO 32005KT 10SM BKN080 18/06 A3001 RMK AO2 SLP181 T01780061
PAFS 240001Z AUTO 32007KT 10SM FEW050 SCT065 18/07 A3002 RMK AO2 SLP183 60000 T01830067 10183 20128 56014
PAFS 232301Z AUTO VRB04KT 10SM FEW045 17/07 A3004 RMK AO2 SLP190 T01720067
PAFS 232201Z AUTO VRB05KT 10SM FEW044 SCT070 16/07 A3005 RMK AO2 SLP195 T01610072
PAFS 232101Z AUTO VRB04KT 10SM SCT036 BKN049 16/07 A3006 RMK AO2 SLP198 60001 T01610067 58006
PAFS 232001Z AUTO 00000KT 10SM SCT025 BKN032 OVC075 15/08 A3008 RMK AO2 SLP204 T01500083
PAFS 231901Z AUTO 22003KT 10SM OVC065 14/09 A3009 RMK AO2 RAB1806E1835 SLP208 P0000 T01390089
PAFS 231801Z AUTO 21003KT 10SM OVC055 13/08 A3009 RMK AO2 SLP209 60002 T01280083 10128 20094 50002
PAFS 231701Z AUTO 22006KT 10SM SCT045 BKN070 OVC110 12/09 A3009 RMK AO2 RAE1633 SLP210 P0000 T01170089
PAFS 231501Z AUTO 21004KT 10SM -RA OVC070 10/09 A3010 RMK AO2 SLP211 P0000 60001 T01000089 51005
PAFS 231401Z AUTO 00000KT 10SM -RA OVC060 09/09 A3009 RMK AO2 SLP208 P0001 T00940089
PAFS 231301Z AUTO 18003KT 10SM -RA OVC055 09/08 A3009 RMK AO2 SLP208 P0000 T00940083
PAFS 231201Z AUTO VRB03KT 10SM -RA OVC060 11/08 A3008 RMK AO2 RAB1158 SLP206 P0000 60000 70004 T01060078 10139 20106 51009
PAFS 231101Z AUTO 19003KT 10SM FEW060 BKN095 OVC110 11/08 A3007 RMK AO2 RAB1007E1039 SLP203 P0000 T01060078
PAFS 231001Z AUTO 21005KT 10SM SCT080 OVC100 12/08 A3006 RMK AO2 RAB0922E0939 SLP199 P0000 T01170078
PAFS 230901Z AUTO 18004KT 10SM FEW070 OVC120 12/08 A3005 RMK AO2 SLP197 60000 T01220078 53010